Airfield :
LOGIN :

Register | Disclaimer

   EN    FR    IT 

 










Legend :    VFR   Marginal VFR   IFR   Intensive IFR   Very Intensive IFR
Visi :
Ceiling :
>= 8 km
>= 3000ft
5 to 8 km
1000 to 3000 ft
1500m to 5 km
500 to 1000 ft
800 to 1500m
200 to 500 ft
< 800m
< 200 ft
Symbols :   Thunderstorms  Fog  Heavy snow  Heavy precipitations  Wind > 20 kt
SIGMETs :     Misc.  Thunderstorms  Icing  Turbulence  Mountain Waves  Volcanic Ashes






- Airport Elevation : 13 ft
- IATA code : LYX


EGMD - Lydd

CURRENT METAR :
  • 061720Z AUTO 25019KT 9999 BKN020/// BKN026/// OVC032/// 13/10 Q1000

EXPIRED METARs :
  • 061650Z AUTO 25020KT 9999 SCT021/// BKN026/// OVC032/// 13/10 Q1000
  • 061620Z AUTO 25019KT 9999 BKN021/// BKN027/// 14/10 Q1000
  • 061550Z AUTO 25025KT 9999 SCT020/// SCT036/// 14/09 Q1000
  • 061520Z AUTO 25021KT 9999 SCT022/// BKN037/// BKN049/// 13/09 Q1000
  • 061450Z AUTO 25020KT 9999 BKN027/// 13/10 Q1000

TAF TAF EGMD
Valid from the 06 at 15:00 until the 07 at 00:00 UTC


061401Z 0615/0624 25022G35KT 9999 SCT025
PROB30
TEMPO 0615/0622 7000 SHRA
BECMG 0620/0623 30008KT
ATIS : +44 1797 322 422



MET'MAP, your aeronautical weather chart ! - Copyright ORBIFLY December 2007 - Disclaimer

ORBIFLY MET'MAP TEAM :

Programming & Development : Alexandra Zaïnal
Concept & original design : Baudouin d'Aumeries
Assistance for programming : Marc-Olivier Méhu
Technical & hardware support : Manuel Goepfert

Contact : metmap@orbifly.com




SOURCES & CREDITS :

   NOAA